sensor_id;sensor_type;location;lat;lon;timestamp;P1;durP1;ratioP1;P2;durP2;ratioP2
28166;SDS011;15455;53.376;-6.262;2023-04-27T00:01:33;9.15;;;4.70;;
28166;SDS011;15455;53.376;-6.262;2023-04-27T00:04:18;8.88;;;3.90;;
28166;SDS011;15455;53.376;-6.262;2023-04-27T00:07:05;11.05;;;4.43;;
28166;SDS011;15455;53.376;-6.262;2023-04-27T00:09:50;14.75;;;4.75;;
28166;SDS011;15455;53.376;-6.262;2023-04-27T00:12:36;9.55;;;3.97;;
28166;SDS011;15455;53.376;-6.262;2023-04-27T00:15:22;13.18;;;4.75;;
28166;SDS011;15455;53.376;-6.262;2023-04-27T00:18:08;7.95;;;4.43;;
28166;SDS011;15455;53.376;-6.262;2023-04-27T00:20:53;10.30;;;4.05;;
28166;SDS011;15455;53.376;-6.262;2023-04-27T00:23:39;9.77;;;5.13;;
28166;SDS011;15455;53.376;-6.262;2023-04-27T00:26:25;8.98;;;4.18;;
28166;SDS011;15455;53.376;-6.262;2023-04-27T00:29:10;13.07;;;4.60;;
28166;SDS011;15455;53.376;-6.262;2023-04-27T00:31:56;10.88;;;4.55;;
28166;SDS011;15455;53.376;-6.262;2023-04-27T00:34:41;8.15;;;4.28;;
28166;SDS011;15455;53.376;-6.262;2023-04-27T00:37:27;8.35;;;4.07;;
28166;SDS011;15455;53.376;-6.262;2023-04-27T00:40:12;10.20;;;4.32;;
28166;SDS011;15455;53.376;-6.262;2023-04-27T00:42:58;9.80;;;4.90;;
28166;SDS011;15455;53.376;-6.262;2023-04-27T00:45:44;11.52;;;4.95;;
28166;SDS011;15455;53.376;-6.262;2023-04-27T00:48:30;13.20;;;4.93;;
28166;SDS011;15455;53.376;-6.262;2023-04-27T00:51:15;9.98;;;4.38;;
28166;SDS011;15455;53.376;-6.262;2023-04-27T00:54:00;8.63;;;3.85;;
28166;SDS011;15455;53.376;-6.262;2023-04-27T00:56:48;12.07;;;5.05;;
28166;SDS011;15455;53.376;-6.262;2023-04-27T00:59:35;11.20;;;4.85;;
28166;SDS011;15455;53.376;-6.262;2023-04-27T01:02:20;9.20;;;4.45;;
28166;SDS011;15455;53.376;-6.262;2023-04-27T01:05:07;11.77;;;4.57;;
28166;SDS011;15455;53.376;-6.262;2023-04-27T01:07:53;10.45;;;4.38;;
28166;SDS011;15455;53.376;-6.262;2023-04-27T01:10:39;6.10;;;4.15;;
28166;SDS011;15455;53.376;-6.262;2023-04-27T01:13:27;13.32;;;4.10;;
28166;SDS011;15455;53.376;-6.262;2023-04-27T01:16:13;8.43;;;4.50;;
28166;SDS011;15455;53.376;-6.262;2023-04-27T01:18:59;11.73;;;5.07;;
28166;SDS011;15455;53.376;-6.262;2023-04-27T01:21:44;12.38;;;4.38;;
28166;SDS011;15455;53.376;-6.262;2023-04-27T01:24:30;14.10;;;4.68;;
28166;SDS011;15455;53.376;-6.262;2023-04-27T01:27:15;8.68;;;4.60;;
28166;SDS011;15455;53.376;-6.262;2023-04-27T01:30:01;10.23;;;4.65;;
28166;SDS011;15455;53.376;-6.262;2023-04-27T01:32:48;11.25;;;4.75;;
28166;SDS011;15455;53.376;-6.262;2023-04-27T01:35:36;9.10;;;4.28;;
28166;SDS011;15455;53.376;-6.262;2023-04-27T01:38:22;12.88;;;4.32;;
28166;SDS011;15455;53.376;-6.262;2023-04-27T01:41:08;12.05;;;4.43;;
28166;SDS011;15455;53.376;-6.262;2023-04-27T01:43:53;9.80;;;5.18;;
28166;SDS011;15455;53.376;-6.262;2023-04-27T01:46:38;15.07;;;5.40;;
28166;SDS011;15455;53.376;-6.262;2023-04-27T01:49:25;9.73;;;5.00;;
28166;SDS011;15455;53.376;-6.262;2023-04-27T01:52:10;11.38;;;4.32;;
28166;SDS011;15455;53.376;-6.262;2023-04-27T01:54:56;13.38;;;5.10;;
28166;SDS011;15455;53.376;-6.262;2023-04-27T01:57:42;9.32;;;4.35;;
28166;SDS011;15455;53.376;-6.262;2023-04-27T02:00:28;12.05;;;4.75;;
28166;SDS011;15455;53.376;-6.262;2023-04-27T02:03:16;11.05;;;4.85;;
28166;SDS011;15455;53.376;-6.262;2023-04-27T02:06:02;10.60;;;4.32;;
28166;SDS011;15455;53.376;-6.262;2023-04-27T02:08:48;15.02;;;5.32;;
28166;SDS011;15455;53.376;-6.262;2023-04-27T02:11:34;11.20;;;4.75;;
28166;SDS011;15455;53.376;-6.262;2023-04-27T02:14:20;14.65;;;4.57;;
28166;SDS011;15455;53.376;-6.262;2023-04-27T02:17:05;16.02;;;4.63;;
28166;SDS011;15455;53.376;-6.262;2023-04-27T02:19:51;8.05;;;5.07;;
28166;SDS011;15455;53.376;-6.262;2023-04-27T02:22:39;6.75;;;4.57;;
28166;SDS011;15455;53.376;-6.262;2023-04-27T02:25:27;12.27;;;4.47;;
28166;SDS011;15455;53.376;-6.262;2023-04-27T02:28:13;9.60;;;4.55;;
28166;SDS011;15455;53.376;-6.262;2023-04-27T02:30:59;12.15;;;4.65;;
28166;SDS011;15455;53.376;-6.262;2023-04-27T02:33:45;10.73;;;4.75;;
28166;SDS011;15455;53.376;-6.262;2023-04-27T02:36:30;7.55;;;4.60;;
28166;SDS011;15455;53.376;-6.262;2023-04-27T02:39:16;8.82;;;4.90;;
28166;SDS011;15455;53.376;-6.262;2023-04-27T02:42:02;11.75;;;5.60;;
28166;SDS011;15455;53.376;-6.262;2023-04-27T02:44:48;15.82;;;5.10;;
28166;SDS011;15455;53.376;-6.262;2023-04-27T02:47:33;13.13;;;4.85;;
28166;SDS011;15455;53.376;-6.262;2023-04-27T02:50:19;10.90;;;4.82;;
28166;SDS011;15455;53.376;-6.262;2023-04-27T02:53:04;9.38;;;5.45;;
28166;SDS011;15455;53.376;-6.262;2023-04-27T02:55:50;16.98;;;6.45;;
28166;SDS011;15455;53.376;-6.262;2023-04-27T02:58:35;12.18;;;6.03;;
28166;SDS011;15455;53.376;-6.262;2023-04-27T03:01:21;15.98;;;6.07;;
28166;SDS011;15455;53.376;-6.262;2023-04-27T03:04:07;11.73;;;5.60;;
28166;SDS011;15455;53.376;-6.262;2023-04-27T03:06:53;16.15;;;6.35;;
28166;SDS011;15455;53.376;-6.262;2023-04-27T03:09:39;18.88;;;7.13;;
28166;SDS011;15455;53.376;-6.262;2023-04-27T03:12:24;13.73;;;5.75;;
28166;SDS011;15455;53.376;-6.262;2023-04-27T03:15:10;11.15;;;5.97;;
28166;SDS011;15455;53.376;-6.262;2023-04-27T03:17:55;12.55;;;5.63;;
28166;SDS011;15455;53.376;-6.262;2023-04-27T03:20:41;17.13;;;5.45;;
28166;SDS011;15455;53.376;-6.262;2023-04-27T03:23:26;10.77;;;5.53;;
28166;SDS011;15455;53.376;-6.262;2023-04-27T03:26:12;12.40;;;5.90;;
28166;SDS011;15455;53.376;-6.262;2023-04-27T03:28:58;10.27;;;5.63;;
28166;SDS011;15455;53.376;-6.262;2023-04-27T03:31:46;11.98;;;5.10;;
28166;SDS011;15455;53.376;-6.262;2023-04-27T03:34:32;11.70;;;6.47;;
28166;SDS011;15455;53.376;-6.262;2023-04-27T03:37:17;13.05;;;6.03;;
28166;SDS011;15455;53.376;-6.262;2023-04-27T03:40:03;12.02;;;5.78;;
28166;SDS011;15455;53.376;-6.262;2023-04-27T03:42:51;10.77;;;5.80;;
28166;SDS011;15455;53.376;-6.262;2023-04-27T03:45:37;9.82;;;5.45;;
28166;SDS011;15455;53.376;-6.262;2023-04-27T03:48:22;11.63;;;6.22;;
28166;SDS011;15455;53.376;-6.262;2023-04-27T03:51:10;10.95;;;5.10;;
28166;SDS011;15455;53.376;-6.262;2023-04-27T03:53:55;9.57;;;4.97;;
28166;SDS011;15455;53.376;-6.262;2023-04-27T03:56:41;8.48;;;5.28;;
28166;SDS011;15455;53.376;-6.262;2023-04-27T03:59:28;12.85;;;5.65;;
28166;SDS011;15455;53.376;-6.262;2023-04-27T04:02:14;11.13;;;5.68;;
28166;SDS011;15455;53.376;-6.262;2023-04-27T04:05:00;16.17;;;6.13;;
28166;SDS011;15455;53.376;-6.262;2023-04-27T04:07:46;10.77;;;6.25;;
28166;SDS011;15455;53.376;-6.262;2023-04-27T04:10:31;21.20;;;7.18;;
28166;SDS011;15455;53.376;-6.262;2023-04-27T04:13:17;20.05;;;7.97;;
28166;SDS011;15455;53.376;-6.262;2023-04-27T04:16:06;18.77;;;7.85;;
28166;SDS011;15455;53.376;-6.262;2023-04-27T04:18:53;19.92;;;7.80;;
28166;SDS011;15455;53.376;-6.262;2023-04-27T04:21:39;15.50;;;8.27;;
28166;SDS011;15455;53.376;-6.262;2023-04-27T04:24:25;19.15;;;8.32;;
28166;SDS011;15455;53.376;-6.262;2023-04-27T04:27:11;18.45;;;7.82;;
28166;SDS011;15455;53.376;-6.262;2023-04-27T04:29:57;18.65;;;8.27;;
28166;SDS011;15455;53.376;-6.262;2023-04-27T04:32:44;24.60;;;9.50;;
28166;SDS011;15455;53.376;-6.262;2023-04-27T04:35:30;16.63;;;9.02;;
28166;SDS011;15455;53.376;-6.262;2023-04-27T04:38:17;25.67;;;10.27;;
28166;SDS011;15455;53.376;-6.262;2023-04-27T04:41:03;22.92;;;9.38;;
28166;SDS011;15455;53.376;-6.262;2023-04-27T04:43:50;21.55;;;10.75;;
28166;SDS011;15455;53.376;-6.262;2023-04-27T04:46:35;21.35;;;9.57;;
28166;SDS011;15455;53.376;-6.262;2023-04-27T04:49:21;29.92;;;10.88;;
28166;SDS011;15455;53.376;-6.262;2023-04-27T04:52:07;23.50;;;10.48;;
28166;SDS011;15455;53.376;-6.262;2023-04-27T04:54:52;20.45;;;9.85;;
28166;SDS011;15455;53.376;-6.262;2023-04-27T04:57:38;26.83;;;10.70;;
28166;SDS011;15455;53.376;-6.262;2023-04-27T05:00:24;22.02;;;10.68;;
28166;SDS011;15455;53.376;-6.262;2023-04-27T05:03:09;28.38;;;11.18;;
28166;SDS011;15455;53.376;-6.262;2023-04-27T05:05:55;26.90;;;11.70;;
28166;SDS011;15455;53.376;-6.262;2023-04-27T05:08:41;33.60;;;12.07;;
28166;SDS011;15455;53.376;-6.262;2023-04-27T05:11:26;25.20;;;12.30;;
28166;SDS011;15455;53.376;-6.262;2023-04-27T05:14:12;26.52;;;12.00;;
28166;SDS011;15455;53.376;-6.262;2023-04-27T05:16:57;25.52;;;12.30;;
28166;SDS011;15455;53.376;-6.262;2023-04-27T05:19:42;33.90;;;12.38;;
28166;SDS011;15455;53.376;-6.262;2023-04-27T05:22:28;32.78;;;13.45;;
28166;SDS011;15455;53.376;-6.262;2023-04-27T05:25:14;31.30;;;12.45;;
28166;SDS011;15455;53.376;-6.262;2023-04-27T05:27:59;35.95;;;12.52;;
28166;SDS011;15455;53.376;-6.262;2023-04-27T05:30:45;31.70;;;12.68;;
28166;SDS011;15455;53.376;-6.262;2023-04-27T05:33:31;28.80;;;12.20;;
28166;SDS011;15455;53.376;-6.262;2023-04-27T05:36:16;35.40;;;13.60;;
28166;SDS011;15455;53.376;-6.262;2023-04-27T05:39:02;24.90;;;11.52;;
28166;SDS011;15455;53.376;-6.262;2023-04-27T05:41:47;25.70;;;10.50;;
28166;SDS011;15455;53.376;-6.262;2023-04-27T05:44:33;24.58;;;10.55;;
28166;SDS011;15455;53.376;-6.262;2023-04-27T05:47:18;30.20;;;9.45;;
28166;SDS011;15455;53.376;-6.262;2023-04-27T05:50:04;19.67;;;10.23;;
28166;SDS011;15455;53.376;-6.262;2023-04-27T05:52:50;21.90;;;9.98;;
28166;SDS011;15455;53.376;-6.262;2023-04-27T05:55:36;25.45;;;10.07;;
28166;SDS011;15455;53.376;-6.262;2023-04-27T05:58:23;28.55;;;12.20;;
28166;SDS011;15455;53.376;-6.262;2023-04-27T06:01:09;26.75;;;11.77;;
28166;SDS011;15455;53.376;-6.262;2023-04-27T06:03:54;28.33;;;11.35;;
28166;SDS011;15455;53.376;-6.262;2023-04-27T06:06:40;31.30;;;12.48;;
28166;SDS011;15455;53.376;-6.262;2023-04-27T06:09:26;26.52;;;11.50;;
28166;SDS011;15455;53.376;-6.262;2023-04-27T06:12:11;29.33;;;11.70;;
28166;SDS011;15455;53.376;-6.262;2023-04-27T06:14:57;34.13;;;11.82;;
28166;SDS011;15455;53.376;-6.262;2023-04-27T06:17:43;41.92;;;12.50;;
28166;SDS011;15455;53.376;-6.262;2023-04-27T06:20:30;33.55;;;11.70;;
28166;SDS011;15455;53.376;-6.262;2023-04-27T06:23:15;36.72;;;11.75;;
28166;SDS011;15455;53.376;-6.262;2023-04-27T06:26:00;30.88;;;12.25;;
28166;SDS011;15455;53.376;-6.262;2023-04-27T06:28:46;30.02;;;10.45;;
28166;SDS011;15455;53.376;-6.262;2023-04-27T06:31:32;27.25;;;9.25;;
28166;SDS011;15455;53.376;-6.262;2023-04-27T06:34:18;29.02;;;9.65;;
28166;SDS011;15455;53.376;-6.262;2023-04-27T06:37:03;24.33;;;9.35;;
28166;SDS011;15455;53.376;-6.262;2023-04-27T06:39:49;19.45;;;8.00;;
28166;SDS011;15455;53.376;-6.262;2023-04-27T06:42:35;25.95;;;8.07;;
28166;SDS011;15455;53.376;-6.262;2023-04-27T06:45:21;20.02;;;7.82;;
28166;SDS011;15455;53.376;-6.262;2023-04-27T06:48:06;20.65;;;8.63;;
28166;SDS011;15455;53.376;-6.262;2023-04-27T06:50:52;29.15;;;9.18;;
28166;SDS011;15455;53.376;-6.262;2023-04-27T06:53:37;27.52;;;7.45;;
28166;SDS011;15455;53.376;-6.262;2023-04-27T06:56:23;19.42;;;7.95;;
28166;SDS011;15455;53.376;-6.262;2023-04-27T06:59:09;23.77;;;8.68;;
28166;SDS011;15455;53.376;-6.262;2023-04-27T07:01:55;19.05;;;8.25;;
28166;SDS011;15455;53.376;-6.262;2023-04-27T07:04:41;22.08;;;7.18;;
28166;SDS011;15455;53.376;-6.262;2023-04-27T07:07:27;23.73;;;7.90;;
28166;SDS011;15455;53.376;-6.262;2023-04-27T07:10:13;24.95;;;8.98;;
28166;SDS011;15455;53.376;-6.262;2023-04-27T07:12:59;21.73;;;7.47;;
28166;SDS011;15455;53.376;-6.262;2023-04-27T07:15:44;20.27;;;7.68;;
28166;SDS011;15455;53.376;-6.262;2023-04-27T07:18:30;25.02;;;8.05;;
28166;SDS011;15455;53.376;-6.262;2023-04-27T07:21:15;13.02;;;6.55;;
28166;SDS011;15455;53.376;-6.262;2023-04-27T07:24:01;19.50;;;7.20;;
28166;SDS011;15455;53.376;-6.262;2023-04-27T07:26:48;18.02;;;7.25;;
28166;SDS011;15455;53.376;-6.262;2023-04-27T07:29:33;32.83;;;9.07;;
28166;SDS011;15455;53.376;-6.262;2023-04-27T07:32:19;22.92;;;7.03;;
28166;SDS011;15455;53.376;-6.262;2023-04-27T07:35:06;18.02;;;7.57;;
28166;SDS011;15455;53.376;-6.262;2023-04-27T07:37:53;20.80;;;7.35;;
28166;SDS011;15455;53.376;-6.262;2023-04-27T07:40:40;29.38;;;8.07;;
28166;SDS011;15455;53.376;-6.262;2023-04-27T07:43:29;18.05;;;6.72;;
28166;SDS011;15455;53.376;-6.262;2023-04-27T07:46:16;20.35;;;7.75;;
28166;SDS011;15455;53.376;-6.262;2023-04-27T07:49:02;32.30;;;8.07;;
28166;SDS011;15455;53.376;-6.262;2023-04-27T07:51:48;20.88;;;7.95;;
28166;SDS011;15455;53.376;-6.262;2023-04-27T07:54:33;20.70;;;7.47;;
28166;SDS011;15455;53.376;-6.262;2023-04-27T07:57:19;30.23;;;9.05;;
28166;SDS011;15455;53.376;-6.262;2023-04-27T08:00:05;23.45;;;8.57;;
28166;SDS011;15455;53.376;-6.262;2023-04-27T08:02:58;30.15;;;8.88;;
28166;SDS011;15455;53.376;-6.262;2023-04-27T08:05:43;23.20;;;8.00;;
28166;SDS011;15455;53.376;-6.262;2023-04-27T08:08:30;26.10;;;7.78;;
28166;SDS011;15455;53.376;-6.262;2023-04-27T08:11:16;26.45;;;8.20;;
28166;SDS011;15455;53.376;-6.262;2023-04-27T08:14:01;20.10;;;7.72;;
28166;SDS011;15455;53.376;-6.262;2023-04-27T08:16:47;20.05;;;8.15;;
28166;SDS011;15455;53.376;-6.262;2023-04-27T08:19:32;13.10;;;7.22;;
28166;SDS011;15455;53.376;-6.262;2023-04-27T08:22:18;17.13;;;7.65;;
28166;SDS011;15455;53.376;-6.262;2023-04-27T08:25:04;27.27;;;8.77;;
28166;SDS011;15455;53.376;-6.262;2023-04-27T08:27:51;22.30;;;9.18;;
28166;SDS011;15455;53.376;-6.262;2023-04-27T08:30:36;20.63;;;8.65;;
28166;SDS011;15455;53.376;-6.262;2023-04-27T08:33:21;28.83;;;9.18;;
28166;SDS011;15455;53.376;-6.262;2023-04-27T08:36:07;19.70;;;7.97;;
28166;SDS011;15455;53.376;-6.262;2023-04-27T08:38:53;20.45;;;9.15;;
28166;SDS011;15455;53.376;-6.262;2023-04-27T08:41:41;17.25;;;8.95;;
28166;SDS011;15455;53.376;-6.262;2023-04-27T08:44:28;26.00;;;8.50;;
28166;SDS011;15455;53.376;-6.262;2023-04-27T08:47:14;20.42;;;9.60;;
28166;SDS011;15455;53.376;-6.262;2023-04-27T08:49:59;22.00;;;8.73;;
28166;SDS011;15455;53.376;-6.262;2023-04-27T08:52:44;23.40;;;10.15;;
28166;SDS011;15455;53.376;-6.262;2023-04-27T08:55:30;27.75;;;10.43;;
28166;SDS011;15455;53.376;-6.262;2023-04-27T08:58:16;23.67;;;10.50;;
28166;SDS011;15455;53.376;-6.262;2023-04-27T09:01:05;19.70;;;8.82;;
28166;SDS011;15455;53.376;-6.262;2023-04-27T09:03:55;21.25;;;9.35;;
28166;SDS011;15455;53.376;-6.262;2023-04-27T09:06:42;25.67;;;10.90;;
28166;SDS011;15455;53.376;-6.262;2023-04-27T09:09:29;19.52;;;10.43;;
28166;SDS011;15455;53.376;-6.262;2023-04-27T09:12:21;27.65;;;9.90;;
28166;SDS011;15455;53.376;-6.262;2023-04-27T09:15:07;23.75;;;9.32;;
28166;SDS011;15455;53.376;-6.262;2023-04-27T09:17:56;27.50;;;9.40;;
28166;SDS011;15455;53.376;-6.262;2023-04-27T09:20:43;28.90;;;9.50;;
28166;SDS011;15455;53.376;-6.262;2023-04-27T09:23:31;25.98;;;9.68;;
28166;SDS011;15455;53.376;-6.262;2023-04-27T09:26:21;27.00;;;8.95;;
28166;SDS011;15455;53.376;-6.262;2023-04-27T09:29:08;19.48;;;9.05;;
28166;SDS011;15455;53.376;-6.262;2023-04-27T09:31:54;27.55;;;8.82;;
28166;SDS011;15455;53.376;-6.262;2023-04-27T09:34:40;30.80;;;9.18;;
28166;SDS011;15455;53.376;-6.262;2023-04-27T09:37:26;31.17;;;9.43;;
28166;SDS011;15455;53.376;-6.262;2023-04-27T09:40:12;25.23;;;10.98;;
28166;SDS011;15455;53.376;-6.262;2023-04-27T09:42:58;26.63;;;9.52;;
28166;SDS011;15455;53.376;-6.262;2023-04-27T09:45:48;24.02;;;8.57;;
28166;SDS011;15455;53.376;-6.262;2023-04-27T09:48:34;26.15;;;9.88;;
28166;SDS011;15455;53.376;-6.262;2023-04-27T09:51:22;19.45;;;9.48;;
28166;SDS011;15455;53.376;-6.262;2023-04-27T09:54:08;22.75;;;10.18;;
28166;SDS011;15455;53.376;-6.262;2023-04-27T10:03:29;30.27;;;10.57;;
28166;SDS011;15455;53.376;-6.262;2023-04-27T10:09:47;26.33;;;10.43;;
28166;SDS011;15455;53.376;-6.262;2023-04-27T10:12:38;21.83;;;9.00;;
28166;SDS011;15455;53.376;-6.262;2023-04-27T10:15:27;25.92;;;10.38;;
28166;SDS011;15455;53.376;-6.262;2023-04-27T10:18:23;25.70;;;10.30;;
28166;SDS011;15455;53.376;-6.262;2023-04-27T10:21:11;17.75;;;9.32;;
28166;SDS011;15455;53.376;-6.262;2023-04-27T10:24:05;26.75;;;10.15;;
28166;SDS011;15455;53.376;-6.262;2023-04-27T10:26:52;29.98;;;10.32;;
28166;SDS011;15455;53.376;-6.262;2023-04-27T10:29:46;28.63;;;10.45;;
28166;SDS011;15455;53.376;-6.262;2023-04-27T10:32:33;27.35;;;10.60;;
28166;SDS011;15455;53.376;-6.262;2023-04-27T10:35:19;30.05;;;10.63;;
28166;SDS011;15455;53.376;-6.262;2023-04-27T10:38:54;22.42;;;10.30;;
28166;SDS011;15455;53.376;-6.262;2023-04-27T10:41:15;22.83;;;8.05;;
28166;SDS011;15455;53.376;-6.262;2023-04-27T10:44:15;21.38;;;9.50;;
28166;SDS011;15455;53.376;-6.262;2023-04-27T10:47:15;24.80;;;9.43;;
28166;SDS011;15455;53.376;-6.262;2023-04-27T10:50:04;26.77;;;9.00;;
28166;SDS011;15455;53.376;-6.262;2023-04-27T10:52:50;26.67;;;9.88;;
28166;SDS011;15455;53.376;-6.262;2023-04-27T10:55:36;25.30;;;9.20;;
28166;SDS011;15455;53.376;-6.262;2023-04-27T10:58:22;27.77;;;10.77;;
28166;SDS011;15455;53.376;-6.262;2023-04-27T11:01:23;19.65;;;10.43;;
28166;SDS011;15455;53.376;-6.262;2023-04-27T11:04:10;23.25;;;9.80;;
28166;SDS011;15455;53.376;-6.262;2023-04-27T11:06:56;27.05;;;10.73;;
28166;SDS011;15455;53.376;-6.262;2023-04-27T11:09:42;31.33;;;11.15;;
28166;SDS011;15455;53.376;-6.262;2023-04-27T11:12:28;22.40;;;10.43;;
28166;SDS011;15455;53.376;-6.262;2023-04-27T11:15:16;19.23;;;9.48;;
28166;SDS011;15455;53.376;-6.262;2023-04-27T11:18:05;35.80;;;10.52;;
28166;SDS011;15455;53.376;-6.262;2023-04-27T11:20:51;27.08;;;9.68;;
28166;SDS011;15455;53.376;-6.262;2023-04-27T11:23:39;14.98;;;8.18;;
28166;SDS011;15455;53.376;-6.262;2023-04-27T11:26:25;16.55;;;7.75;;
28166;SDS011;15455;53.376;-6.262;2023-04-27T11:29:10;16.50;;;7.82;;
28166;SDS011;15455;53.376;-6.262;2023-04-27T11:31:58;21.33;;;8.85;;
28166;SDS011;15455;53.376;-6.262;2023-04-27T11:34:51;19.15;;;9.45;;
28166;SDS011;15455;53.376;-6.262;2023-04-27T11:37:40;27.40;;;9.32;;
28166;SDS011;15455;53.376;-6.262;2023-04-27T11:40:26;23.02;;;9.65;;
28166;SDS011;15455;53.376;-6.262;2023-04-27T11:43:13;20.30;;;9.52;;
28166;SDS011;15455;53.376;-6.262;2023-04-27T11:46:03;17.02;;;9.82;;
28166;SDS011;15455;53.376;-6.262;2023-04-27T11:48:50;16.75;;;8.90;;
28166;SDS011;15455;53.376;-6.262;2023-04-27T11:51:36;21.67;;;9.43;;
28166;SDS011;15455;53.376;-6.262;2023-04-27T11:54:26;16.35;;;8.35;;
28166;SDS011;15455;53.376;-6.262;2023-04-27T11:57:13;20.40;;;8.43;;
28166;SDS011;15455;53.376;-6.262;2023-04-27T11:59:59;23.70;;;8.95;;
28166;SDS011;15455;53.376;-6.262;2023-04-27T12:02:56;17.17;;;8.05;;
28166;SDS011;15455;53.376;-6.262;2023-04-27T12:05:46;19.67;;;7.80;;
28166;SDS011;15455;53.376;-6.262;2023-04-27T12:08:36;16.67;;;7.93;;
28166;SDS011;15455;53.376;-6.262;2023-04-27T12:11:25;16.45;;;8.57;;
28166;SDS011;15455;53.376;-6.262;2023-04-27T12:17:00;18.88;;;9.65;;
28166;SDS011;15455;53.376;-6.262;2023-04-27T12:19:45;24.48;;;10.35;;
28166;SDS011;15455;53.376;-6.262;2023-04-27T12:22:30;21.40;;;10.38;;
28166;SDS011;15455;53.376;-6.262;2023-04-27T12:25:16;24.45;;;10.85;;
28166;SDS011;15455;53.376;-6.262;2023-04-27T12:28:03;18.63;;;10.25;;
28166;SDS011;15455;53.376;-6.262;2023-04-27T12:30:48;21.25;;;9.10;;
28166;SDS011;15455;53.376;-6.262;2023-04-27T12:33:34;20.15;;;11.30;;
28166;SDS011;15455;53.376;-6.262;2023-04-27T12:36:20;27.60;;;11.23;;
28166;SDS011;15455;53.376;-6.262;2023-04-27T12:39:18;23.85;;;10.73;;
28166;SDS011;15455;53.376;-6.262;2023-04-27T12:42:05;22.85;;;10.27;;
28166;SDS011;15455;53.376;-6.262;2023-04-27T12:44:51;28.35;;;11.35;;
28166;SDS011;15455;53.376;-6.262;2023-04-27T12:47:37;23.30;;;10.07;;
28166;SDS011;15455;53.376;-6.262;2023-04-27T12:50:44;27.77;;;13.40;;
28166;SDS011;15455;53.376;-6.262;2023-04-27T12:53:30;25.75;;;12.80;;
28166;SDS011;15455;53.376;-6.262;2023-04-27T12:56:16;29.42;;;12.40;;
28166;SDS011;15455;53.376;-6.262;2023-04-27T12:59:02;32.20;;;14.23;;
28166;SDS011;15455;53.376;-6.262;2023-04-27T13:01:48;30.15;;;14.13;;
28166;SDS011;15455;53.376;-6.262;2023-04-27T13:04:33;29.95;;;14.77;;
28166;SDS011;15455;53.376;-6.262;2023-04-27T13:07:20;32.45;;;14.45;;
28166;SDS011;15455;53.376;-6.262;2023-04-27T13:10:05;34.10;;;15.10;;
28166;SDS011;15455;53.376;-6.262;2023-04-27T13:12:52;29.98;;;15.60;;
28166;SDS011;15455;53.376;-6.262;2023-04-27T13:15:38;38.67;;;15.95;;
28166;SDS011;15455;53.376;-6.262;2023-04-27T13:18:24;28.42;;;14.40;;
28166;SDS011;15455;53.376;-6.262;2023-04-27T13:21:09;29.92;;;14.20;;
28166;SDS011;15455;53.376;-6.262;2023-04-27T13:23:56;25.48;;;11.88;;
28166;SDS011;15455;53.376;-6.262;2023-04-27T13:26:44;25.52;;;13.40;;
28166;SDS011;15455;53.376;-6.262;2023-04-27T13:29:30;25.35;;;13.57;;
28166;SDS011;15455;53.376;-6.262;2023-04-27T13:32:15;23.80;;;12.48;;
28166;SDS011;15455;53.376;-6.262;2023-04-27T13:35:01;23.42;;;12.25;;
28166;SDS011;15455;53.376;-6.262;2023-04-27T13:37:47;27.65;;;12.55;;
28166;SDS011;15455;53.376;-6.262;2023-04-27T13:40:33;26.48;;;12.35;;
28166;SDS011;15455;53.376;-6.262;2023-04-27T13:43:18;30.52;;;11.98;;
28166;SDS011;15455;53.376;-6.262;2023-04-27T13:46:04;25.13;;;11.90;;
28166;SDS011;15455;53.376;-6.262;2023-04-27T13:48:50;20.30;;;10.85;;
28166;SDS011;15455;53.376;-6.262;2023-04-27T13:51:35;24.50;;;12.65;;
28166;SDS011;15455;53.376;-6.262;2023-04-27T13:54:20;23.30;;;11.68;;
28166;SDS011;15455;53.376;-6.262;2023-04-27T13:57:06;21.48;;;12.32;;
28166;SDS011;15455;53.376;-6.262;2023-04-27T13:59:51;24.70;;;12.50;;
28166;SDS011;15455;53.376;-6.262;2023-04-27T14:02:37;26.83;;;12.57;;
28166;SDS011;15455;53.376;-6.262;2023-04-27T14:05:23;20.88;;;11.48;;
28166;SDS011;15455;53.376;-6.262;2023-04-27T14:08:09;25.25;;;11.30;;
28166;SDS011;15455;53.376;-6.262;2023-04-27T14:10:55;24.35;;;12.10;;
28166;SDS011;15455;53.376;-6.262;2023-04-27T14:13:42;25.58;;;11.13;;
28166;SDS011;15455;53.376;-6.262;2023-04-27T14:16:28;23.83;;;10.80;;
28166;SDS011;15455;53.376;-6.262;2023-04-27T14:19:13;21.38;;;10.52;;
28166;SDS011;15455;53.376;-6.262;2023-04-27T14:21:59;23.00;;;11.38;;
28166;SDS011;15455;53.376;-6.262;2023-04-27T14:24:45;22.13;;;10.75;;
28166;SDS011;15455;53.376;-6.262;2023-04-27T14:27:31;26.38;;;11.20;;
28166;SDS011;15455;53.376;-6.262;2023-04-27T14:30:16;19.88;;;10.57;;
28166;SDS011;15455;53.376;-6.262;2023-04-27T14:33:01;24.80;;;12.93;;
28166;SDS011;15455;53.376;-6.262;2023-04-27T14:35:47;28.48;;;12.57;;
28166;SDS011;15455;53.376;-6.262;2023-04-27T14:38:33;25.40;;;10.52;;
28166;SDS011;15455;53.376;-6.262;2023-04-27T14:41:18;20.23;;;11.68;;
28166;SDS011;15455;53.376;-6.262;2023-04-27T14:44:04;19.63;;;11.05;;
28166;SDS011;15455;53.376;-6.262;2023-04-27T14:46:52;27.73;;;10.23;;
28166;SDS011;15455;53.376;-6.262;2023-04-27T14:49:38;20.00;;;10.88;;
28166;SDS011;15455;53.376;-6.262;2023-04-27T14:52:23;20.00;;;10.93;;
28166;SDS011;15455;53.376;-6.262;2023-04-27T14:55:09;22.50;;;10.27;;
28166;SDS011;15455;53.376;-6.262;2023-04-27T14:57:55;26.42;;;10.38;;
28166;SDS011;15455;53.376;-6.262;2023-04-27T15:00:41;23.45;;;10.23;;
28166;SDS011;15455;53.376;-6.262;2023-04-27T15:03:27;27.55;;;11.32;;
28166;SDS011;15455;53.376;-6.262;2023-04-27T15:06:13;20.15;;;9.82;;
28166;SDS011;15455;53.376;-6.262;2023-04-27T15:08:58;22.95;;;10.65;;
28166;SDS011;15455;53.376;-6.262;2023-04-27T15:11:44;22.15;;;10.75;;
28166;SDS011;15455;53.376;-6.262;2023-04-27T15:14:29;22.08;;;9.45;;
28166;SDS011;15455;53.376;-6.262;2023-04-27T15:17:15;33.22;;;11.45;;
28166;SDS011;15455;53.376;-6.262;2023-04-27T15:20:01;24.30;;;11.15;;
28166;SDS011;15455;53.376;-6.262;2023-04-27T15:22:46;20.70;;;9.80;;
28166;SDS011;15455;53.376;-6.262;2023-04-27T15:25:32;22.48;;;12.10;;
28166;SDS011;15455;53.376;-6.262;2023-04-27T15:28:17;26.00;;;12.88;;
28166;SDS011;15455;53.376;-6.262;2023-04-27T15:31:03;21.23;;;11.52;;
28166;SDS011;15455;53.376;-6.262;2023-04-27T15:33:49;22.25;;;11.75;;
28166;SDS011;15455;53.376;-6.262;2023-04-27T15:36:35;27.65;;;13.48;;
28166;SDS011;15455;53.376;-6.262;2023-04-27T15:39:20;21.67;;;11.95;;
28166;SDS011;15455;53.376;-6.262;2023-04-27T15:42:06;29.52;;;12.52;;
28166;SDS011;15455;53.376;-6.262;2023-04-27T15:44:52;34.70;;;12.52;;
28166;SDS011;15455;53.376;-6.262;2023-04-27T15:47:37;28.33;;;12.38;;
28166;SDS011;15455;53.376;-6.262;2023-04-27T15:50:22;35.13;;;11.82;;
28166;SDS011;15455;53.376;-6.262;2023-04-27T15:53:08;29.60;;;11.50;;
28166;SDS011;15455;53.376;-6.262;2023-04-27T15:55:54;28.42;;;11.02;;
28166;SDS011;15455;53.376;-6.262;2023-04-27T15:58:39;27.33;;;10.88;;
28166;SDS011;15455;53.376;-6.262;2023-04-27T16:01:24;22.80;;;10.70;;
28166;SDS011;15455;53.376;-6.262;2023-04-27T16:04:10;27.23;;;11.82;;
28166;SDS011;15455;53.376;-6.262;2023-04-27T16:06:56;25.15;;;10.90;;
28166;SDS011;15455;53.376;-6.262;2023-04-27T16:09:42;27.30;;;9.68;;
28166;SDS011;15455;53.376;-6.262;2023-04-27T16:12:27;17.58;;;9.20;;
28166;SDS011;15455;53.376;-6.262;2023-04-27T16:15:13;23.38;;;9.73;;
28166;SDS011;15455;53.376;-6.262;2023-04-27T16:17:58;26.50;;;10.75;;
28166;SDS011;15455;53.376;-6.262;2023-04-27T16:20:44;22.27;;;11.57;;
28166;SDS011;15455;53.376;-6.262;2023-04-27T16:23:30;29.38;;;13.73;;